createdAt,value
2022-11-30T00:00:57.581Z,267.60
2022-11-30T00:01:57.720Z,249.30
2022-11-30T00:02:57.650Z,253.60
2022-11-30T00:03:57.570Z,243.60
2022-11-30T00:04:57.588Z,236.80
2022-11-30T00:05:57.509Z,217.50
2022-11-30T00:06:57.517Z,225.10
2022-11-30T00:07:57.556Z,215.00
2022-11-30T00:08:57.493Z,216.50
2022-11-30T00:09:57.464Z,204.30
2022-11-30T00:10:57.448Z,212.30
2022-11-30T00:11:57.429Z,188.90
2022-11-30T00:12:57.430Z,190.50
2022-11-30T00:13:57.453Z,183.40
2022-11-30T00:14:57.428Z,185.70
2022-11-30T00:15:57.380Z,188.90
2022-11-30T00:16:57.484Z,185.00
2022-11-30T00:17:57.355Z,174.40
2022-11-30T00:18:57.347Z,181.30
2022-11-30T00:19:57.377Z,154.60
2022-11-30T00:20:57.320Z,161.50
2022-11-30T00:21:57.327Z,156.30
2022-11-30T00:22:57.290Z,157.50
2022-11-30T00:23:57.301Z,170.90
2022-11-30T00:24:57.272Z,164.40
2022-11-30T00:25:57.250Z,153.80
2022-11-30T00:26:57.269Z,168.80
2022-11-30T00:27:57.220Z,177.00
2022-11-30T00:28:57.215Z,167.00
2022-11-30T00:29:57.194Z,179.80
2022-11-30T00:30:57.242Z,185.90
2022-11-30T00:31:57.195Z,176.70
2022-11-30T00:32:57.189Z,183.10
2022-11-30T00:33:57.166Z,167.10
2022-11-30T00:34:57.147Z,171.90
2022-11-30T00:35:57.128Z,174.50
2022-11-30T00:36:57.133Z,167.40
2022-11-30T00:37:57.097Z,153.20
2022-11-30T00:38:57.079Z,161.40
2022-11-30T00:39:57.063Z,154.60
2022-11-30T00:40:57.065Z,145.20
2022-11-30T00:41:57.064Z,143.90
2022-11-30T00:42:57.054Z,138.90
2022-11-30T00:43:57.032Z,148.20
2022-11-30T00:44:57.006Z,149.00
2022-11-30T00:45:57.010Z,149.20
2022-11-30T00:46:56.995Z,151.70
2022-11-30T00:47:56.952Z,141.50
2022-11-30T00:48:56.957Z,151.90
2022-11-30T00:49:56.964Z,151.50
2022-11-30T00:50:57.031Z,153.80
2022-11-30T00:51:56.923Z,141.50
2022-11-30T00:52:56.896Z,136.50
2022-11-30T00:53:56.884Z,142.40
2022-11-30T00:54:56.881Z,140.20
2022-11-30T00:55:56.889Z,137.10
2022-11-30T00:56:56.845Z,160.80
2022-11-30T00:57:56.826Z,147.80
2022-11-30T00:58:56.867Z,154.00
2022-11-30T00:59:56.801Z,149.30
2022-11-30T01:00:56.878Z,161.90
2022-11-30T01:01:56.774Z,151.30
2022-11-30T01:02:56.768Z,162.50
2022-11-30T01:03:56.761Z,161.50
2022-11-30T01:04:56.749Z,168.60
2022-11-30T01:05:56.753Z,184.40
2022-11-30T01:06:56.722Z,174.00
2022-11-30T01:07:56.742Z,159.20
2022-11-30T01:08:56.726Z,163.70
2022-11-30T01:09:56.663Z,163.20
2022-11-30T01:10:56.719Z,157.00
2022-11-30T01:11:56.666Z,170.40
2022-11-30T01:12:56.630Z,153.80
2022-11-30T01:13:56.609Z,158.00
2022-11-30T01:14:56.638Z,183.40
2022-11-30T01:15:56.631Z,165.40
2022-11-30T01:16:56.586Z,164.50
2022-11-30T01:17:56.589Z,178.00
2022-11-30T01:18:56.559Z,179.90
2022-11-30T01:19:56.567Z,165.90
2022-11-30T01:20:56.528Z,168.10
2022-11-30T01:21:56.513Z,167.70
2022-11-30T01:22:56.498Z,170.00
2022-11-30T01:23:56.480Z,154.80
2022-11-30T01:24:56.489Z,162.00
2022-11-30T01:25:56.457Z,158.40
2022-11-30T01:26:56.451Z,157.90
2022-11-30T01:27:56.429Z,181.50
2022-11-30T01:28:56.431Z,169.10
2022-11-30T01:29:56.426Z,185.70
2022-11-30T01:30:56.426Z,171.70
2022-11-30T01:31:56.408Z,187.40
2022-11-30T01:32:56.372Z,184.00
2022-11-30T01:33:56.342Z,179.60
2022-11-30T01:34:56.341Z,173.40
2022-11-30T01:35:56.343Z,201.00
2022-11-30T01:36:56.347Z,182.50
2022-11-30T01:37:56.306Z,183.50
2022-11-30T01:38:56.289Z,199.20
2022-11-30T01:39:56.265Z,197.40
2022-11-30T01:40:56.329Z,181.40
2022-11-30T01:41:56.242Z,182.80
2022-11-30T01:42:56.241Z,191.30
2022-11-30T01:43:56.241Z,179.70
2022-11-30T01:44:56.236Z,171.40
2022-11-30T01:45:56.208Z,171.70
2022-11-30T01:46:56.203Z,175.80
2022-11-30T01:47:56.169Z,165.00
2022-11-30T01:48:56.235Z,165.90
2022-11-30T01:49:56.139Z,165.80
2022-11-30T01:50:56.197Z,162.50
2022-11-30T01:51:56.138Z,159.30
2022-11-30T01:52:56.102Z,147.70
2022-11-30T01:53:56.110Z,163.10
2022-11-30T01:54:56.118Z,158.50
2022-11-30T01:55:56.076Z,144.10
2022-11-30T01:56:56.076Z,150.40
2022-11-30T01:57:56.033Z,156.30
2022-11-30T01:58:56.035Z,155.20
2022-11-30T01:59:56.079Z,154.20
2022-11-30T02:00:56.051Z,155.40
2022-11-30T02:01:55.973Z,170.40
2022-11-30T02:02:56.044Z,163.00
2022-11-30T02:03:55.964Z,168.50
2022-11-30T02:04:55.983Z,158.00
2022-11-30T02:05:56.041Z,148.70
2022-11-30T02:06:55.955Z,156.70
2022-11-30T02:07:56.061Z,155.80
2022-11-30T02:08:55.894Z,161.80
2022-11-30T02:09:55.871Z,158.10
2022-11-30T02:10:55.894Z,169.70
2022-11-30T02:11:55.851Z,172.70
2022-11-30T02:12:55.843Z,170.20
2022-11-30T02:13:55.823Z,161.70
2022-11-30T02:14:55.813Z,171.40
2022-11-30T02:15:55.974Z,171.50
2022-11-30T02:16:55.788Z,167.00
2022-11-30T02:17:55.771Z,168.60
2022-11-30T02:18:55.761Z,181.30
2022-11-30T02:19:55.783Z,182.60
2022-11-30T02:20:55.763Z,172.70
2022-11-30T02:21:55.714Z,192.70
2022-11-30T02:22:55.715Z,186.00
2022-11-30T02:23:55.727Z,185.20
2022-11-30T02:24:55.691Z,189.80
2022-11-30T02:25:55.703Z,196.60
2022-11-30T02:26:55.650Z,194.40
2022-11-30T02:27:55.679Z,208.00
2022-11-30T02:28:55.630Z,201.50
2022-11-30T02:29:55.614Z,206.00
2022-11-30T02:30:55.732Z,208.30
2022-11-30T02:31:55.583Z,209.30
2022-11-30T02:32:55.608Z,222.80
2022-11-30T02:33:55.556Z,212.80
2022-11-30T02:34:55.586Z,207.50
2022-11-30T02:35:55.675Z,211.30
2022-11-30T02:36:55.534Z,200.00
2022-11-30T02:37:55.498Z,197.40
2022-11-30T02:38:55.525Z,204.80
2022-11-30T02:39:55.487Z,197.10
2022-11-30T02:40:55.499Z,200.10
2022-11-30T02:41:55.451Z,192.20
2022-11-30T02:42:55.469Z,188.60
2022-11-30T02:43:55.449Z,184.90
2022-11-30T02:44:55.421Z,193.50
2022-11-30T02:45:55.485Z,182.30
2022-11-30T02:46:55.423Z,183.60
2022-11-30T02:47:55.380Z,194.80
2022-11-30T02:48:55.361Z,185.90
2022-11-30T02:49:55.355Z,181.70
2022-11-30T02:50:55.362Z,182.40
2022-11-30T02:51:55.331Z,200.40
2022-11-30T02:52:55.294Z,189.30
2022-11-30T02:53:55.324Z,199.90
2022-11-30T02:54:55.280Z,200.30
2022-11-30T02:55:55.291Z,202.00
2022-11-30T02:56:55.284Z,191.80
2022-11-30T02:57:55.277Z,199.50
2022-11-30T02:58:55.263Z,204.80
2022-11-30T02:59:55.225Z,207.10
2022-11-30T03:00:55.239Z,195.20
2022-11-30T03:01:55.250Z,209.70
2022-11-30T03:02:55.255Z,216.90
2022-11-30T03:03:55.173Z,213.80
2022-11-30T03:04:55.154Z,216.60
2022-11-30T03:05:55.143Z,206.10
2022-11-30T03:06:55.124Z,222.00
2022-11-30T03:07:55.194Z,229.50
2022-11-30T03:08:55.127Z,219.80
2022-11-30T03:09:55.111Z,216.90
2022-11-30T03:10:55.065Z,241.30
2022-11-30T03:11:55.072Z,251.40
2022-11-30T03:12:55.041Z,228.10
2022-11-30T03:13:55.065Z,234.90
2022-11-30T03:14:55.055Z,217.30
2022-11-30T03:15:55.092Z,217.50
2022-11-30T03:16:54.994Z,222.50
2022-11-30T03:17:54.982Z,220.50
2022-11-30T03:18:54.969Z,224.40
2022-11-30T03:19:54.958Z,211.80
2022-11-30T03:20:54.965Z,210.00
2022-11-30T03:21:54.963Z,213.00
2022-11-30T03:22:54.904Z,220.60
2022-11-30T03:23:54.906Z,217.80
2022-11-30T03:24:54.882Z,222.20
2022-11-30T03:25:54.882Z,216.50
2022-11-30T03:26:54.892Z,212.90
2022-11-30T03:27:54.873Z,225.90
2022-11-30T03:28:54.837Z,218.90
2022-11-30T03:29:54.829Z,231.40
2022-11-30T03:30:54.840Z,226.00
2022-11-30T03:31:54.827Z,218.40
2022-11-30T03:32:54.798Z,235.10
2022-11-30T03:33:54.772Z,224.90
2022-11-30T03:34:54.751Z,230.80
2022-11-30T03:35:54.752Z,229.70
2022-11-30T03:36:54.727Z,226.50
2022-11-30T03:37:54.753Z,237.30
2022-11-30T03:38:54.719Z,235.50
2022-11-30T03:39:58.129Z,233.00
2022-11-30T03:40:54.676Z,240.90
2022-11-30T03:41:54.680Z,232.50
2022-11-30T03:42:54.684Z,246.40
2022-11-30T03:43:54.647Z,240.60
2022-11-30T03:44:54.618Z,240.00
2022-11-30T03:45:54.619Z,231.60
2022-11-30T03:46:54.656Z,237.40
2022-11-30T03:47:54.620Z,230.80
2022-11-30T03:48:54.572Z,230.80
2022-11-30T03:49:54.564Z,233.00
2022-11-30T03:50:54.560Z,243.10
2022-11-30T03:51:54.573Z,229.20
2022-11-30T03:52:54.524Z,230.70
2022-11-30T03:53:54.514Z,222.20
2022-11-30T03:54:54.487Z,211.70
2022-11-30T03:55:54.489Z,209.70
2022-11-30T03:56:54.479Z,220.40
2022-11-30T03:57:54.482Z,230.10
2022-11-30T03:58:54.440Z,223.30
2022-11-30T03:59:54.459Z,221.70
2022-11-30T04:00:54.415Z,228.10
2022-11-30T04:01:54.478Z,228.70
2022-11-30T04:02:54.434Z,225.60
2022-11-30T04:03:54.408Z,220.90
2022-11-30T04:04:54.351Z,232.10
2022-11-30T04:05:54.356Z,224.10
2022-11-30T04:06:54.332Z,230.60
2022-11-30T04:07:54.451Z,227.10
2022-11-30T04:08:54.345Z,219.70
2022-11-30T04:09:54.343Z,220.50
2022-11-30T04:10:54.286Z,215.50
2022-11-30T04:11:54.281Z,220.40
2022-11-30T04:12:54.263Z,210.10
2022-11-30T04:13:54.246Z,229.40
2022-11-30T04:14:54.241Z,237.10
2022-11-30T04:15:54.261Z,227.50
2022-11-30T04:16:54.197Z,237.50
2022-11-30T04:17:54.192Z,250.90
2022-11-30T04:18:54.193Z,268.80
2022-11-30T04:19:54.199Z,272.50
2022-11-30T04:20:54.147Z,258.70
2022-11-30T04:21:54.142Z,264.20
2022-11-30T04:22:54.126Z,253.90
2022-11-30T04:23:54.136Z,272.70
2022-11-30T04:24:54.098Z,251.90
2022-11-30T04:25:54.093Z,259.60
2022-11-30T04:26:54.066Z,245.90
2022-11-30T04:27:54.065Z,246.10
2022-11-30T04:28:54.072Z,223.70
2022-11-30T04:29:54.033Z,244.60
2022-11-30T04:30:54.131Z,232.60
2022-11-30T04:31:54.009Z,250.20
2022-11-30T04:32:53.982Z,234.00
2022-11-30T04:33:54.013Z,246.60
2022-11-30T04:34:53.986Z,241.20
2022-11-30T04:35:53.951Z,244.40
2022-11-30T04:36:59.971Z,252.90
2022-11-30T04:37:53.931Z,248.40
2022-11-30T04:38:53.915Z,226.10
2022-11-30T04:39:53.931Z,237.40
2022-11-30T04:40:53.888Z,230.00
2022-11-30T04:41:53.885Z,226.50
2022-11-30T04:42:53.862Z,220.10
2022-11-30T04:43:53.877Z,227.20
2022-11-30T04:44:53.835Z,227.80
2022-11-30T04:45:53.815Z,226.30
2022-11-30T04:46:53.866Z,224.60
2022-11-30T04:47:53.802Z,215.80
2022-11-30T04:48:53.804Z,206.80
2022-11-30T04:49:53.804Z,202.90
2022-11-30T04:50:53.782Z,209.10
2022-11-30T04:51:53.756Z,208.50
2022-11-30T04:52:53.733Z,204.00
2022-11-30T04:53:53.757Z,196.70
2022-11-30T04:54:53.718Z,186.90
2022-11-30T04:55:53.699Z,199.40
2022-11-30T04:56:53.677Z,193.10
2022-11-30T04:57:53.664Z,194.00
2022-11-30T04:58:53.685Z,191.10
2022-11-30T04:59:53.643Z,183.00
2022-11-30T05:00:53.613Z,201.20
2022-11-30T05:01:53.702Z,196.20
2022-11-30T05:02:53.590Z,192.90
2022-11-30T05:03:53.591Z,202.10
2022-11-30T05:04:53.598Z,199.00
2022-11-30T05:05:53.601Z,194.00
2022-11-30T05:06:53.543Z,196.20
2022-11-30T05:07:53.560Z,195.50
2022-11-30T05:08:53.523Z,179.80
2022-11-30T05:09:53.512Z,177.30
2022-11-30T05:10:53.612Z,173.70
2022-11-30T05:11:53.490Z,176.20
2022-11-30T05:12:53.464Z,170.10
2022-11-30T05:13:53.457Z,184.60
2022-11-30T05:14:53.436Z,176.30
2022-11-30T05:15:53.483Z,182.70
2022-11-30T05:16:53.448Z,183.20
2022-11-30T05:17:53.416Z,190.30
2022-11-30T05:18:53.403Z,194.40
2022-11-30T05:19:53.383Z,193.50
2022-11-30T05:20:53.353Z,197.80
2022-11-30T05:21:53.384Z,192.20
2022-11-30T05:22:53.325Z,201.10
2022-11-30T05:23:53.323Z,193.90
2022-11-30T05:24:53.304Z,191.30
2022-11-30T05:25:53.314Z,205.90
2022-11-30T05:26:53.311Z,218.90
2022-11-30T05:27:53.276Z,208.80
2022-11-30T05:28:53.255Z,217.70
2022-11-30T05:29:53.274Z,208.90
2022-11-30T05:30:53.217Z,204.00
2022-11-30T05:31:53.251Z,209.60
2022-11-30T05:32:53.197Z,204.30
2022-11-30T05:33:53.203Z,201.40
2022-11-30T05:34:53.716Z,200.20
2022-11-30T05:35:53.199Z,195.60
2022-11-30T05:36:53.158Z,210.10
2022-11-30T05:37:53.149Z,206.80
2022-11-30T05:38:53.156Z,201.80
2022-11-30T05:39:53.140Z,212.10
2022-11-30T05:40:53.169Z,213.70
2022-11-30T05:41:53.122Z,209.60
2022-11-30T05:42:53.064Z,221.90
2022-11-30T05:43:53.103Z,217.40
2022-11-30T05:44:53.061Z,212.90
2022-11-30T05:45:53.039Z,221.50
2022-11-30T05:46:53.178Z,212.50
2022-11-30T05:47:53.020Z,205.80
2022-11-30T05:48:52.989Z,211.90
2022-11-30T05:49:53.008Z,218.60
2022-11-30T05:50:52.975Z,206.80
2022-11-30T05:51:52.976Z,204.40
2022-11-30T05:52:52.928Z,200.20
2022-11-30T05:53:52.962Z,203.30
2022-11-30T05:54:52.928Z,217.40
2022-11-30T05:55:52.912Z,219.10
2022-11-30T05:56:55.079Z,210.20
2022-11-30T05:57:52.877Z,222.70
2022-11-30T05:58:52.888Z,208.70
2022-11-30T05:59:52.854Z,218.90
2022-11-30T06:00:52.857Z,198.70
2022-11-30T06:01:53.013Z,204.90
2022-11-30T06:02:52.862Z,224.50
2022-11-30T06:03:52.808Z,217.00
2022-11-30T06:04:52.774Z,212.70
2022-11-30T06:05:52.778Z,217.80
2022-11-30T06:06:52.780Z,211.50
2022-11-30T06:07:52.773Z,225.80
2022-11-30T06:08:52.734Z,219.30
2022-11-30T06:09:52.734Z,224.90
2022-11-30T06:10:52.703Z,228.70
2022-11-30T06:11:52.729Z,227.40
2022-11-30T06:12:52.668Z,229.00
2022-11-30T06:13:52.665Z,254.30
2022-11-30T06:14:52.637Z,236.10
2022-11-30T06:15:52.708Z,234.60
2022-11-30T06:16:52.679Z,233.40
2022-11-30T06:17:52.615Z,233.40
2022-11-30T06:18:52.597Z,233.90
2022-11-30T06:19:52.604Z,231.10
2022-11-30T06:20:52.596Z,228.20
2022-11-30T06:21:52.599Z,227.70
2022-11-30T06:22:52.535Z,221.90
2022-11-30T06:23:52.569Z,231.30
2022-11-30T06:24:52.505Z,224.30
2022-11-30T06:25:52.511Z,227.70
2022-11-30T06:26:52.517Z,224.20
2022-11-30T06:27:52.487Z,220.80
2022-11-30T06:28:52.464Z,209.00
2022-11-30T06:29:52.479Z,213.30
2022-11-30T06:30:52.442Z,206.70
2022-11-30T06:31:52.477Z,202.80
2022-11-30T06:32:52.432Z,208.20
2022-11-30T06:34:24.215Z,210.00
2022-11-30T06:34:52.381Z,207.50
2022-11-30T06:35:52.382Z,211.90
2022-11-30T06:36:52.384Z,216.40
2022-11-30T06:37:52.360Z,216.40
2022-11-30T06:38:52.369Z,217.00
2022-11-30T06:40:06.353Z,233.60
2022-11-30T06:40:52.310Z,212.80
2022-11-30T06:41:54.548Z,232.40
2022-11-30T06:42:52.274Z,225.60
2022-11-30T06:43:52.304Z,235.30
2022-11-30T06:44:52.256Z,233.60
2022-11-30T06:45:52.291Z,223.80
2022-11-30T06:46:52.220Z,215.00
2022-11-30T06:47:52.251Z,216.00
2022-11-30T06:48:52.221Z,228.70
2022-11-30T06:49:52.198Z,219.00
2022-11-30T06:50:52.182Z,211.50
2022-11-30T06:51:52.201Z,211.00
2022-11-30T06:52:52.170Z,210.30
2022-11-30T06:53:52.143Z,215.90
2022-11-30T06:54:52.125Z,215.00
2022-11-30T06:55:52.099Z,211.50
2022-11-30T06:56:52.121Z,211.80
2022-11-30T06:57:52.083Z,206.80
2022-11-30T06:58:52.079Z,205.50
2022-11-30T06:59:52.059Z,199.60
2022-11-30T07:00:52.231Z,207.20
2022-11-30T07:01:52.027Z,197.90
2022-11-30T07:02:52.028Z,204.50
2022-11-30T07:03:52.046Z,211.30
2022-11-30T07:04:51.998Z,203.00
2022-11-30T07:05:51.978Z,192.70
2022-11-30T07:06:52.001Z,194.80
2022-11-30T07:07:52.039Z,192.20
2022-11-30T07:08:51.936Z,188.50
2022-11-30T07:09:51.921Z,176.80
2022-11-30T07:10:51.928Z,193.50
2022-11-30T07:11:51.919Z,187.90
2022-11-30T07:12:51.945Z,190.80
2022-11-30T07:13:51.866Z,195.50
2022-11-30T07:14:51.865Z,199.60
2022-11-30T07:15:51.839Z,195.90
2022-11-30T07:16:51.892Z,198.60
2022-11-30T07:17:51.840Z,188.20
2022-11-30T07:18:51.817Z,192.90
2022-11-30T07:19:51.794Z,188.60
2022-11-30T07:20:51.790Z,199.50
2022-11-30T07:21:51.768Z,189.30
2022-11-30T07:22:51.780Z,189.90
2022-11-30T07:23:56.375Z,189.20
2022-11-30T07:24:51.745Z,178.50
2022-11-30T07:25:51.705Z,186.20
2022-11-30T07:26:51.741Z,185.40
2022-11-30T07:27:51.689Z,187.20
2022-11-30T07:28:51.706Z,183.10
2022-11-30T07:29:51.695Z,187.80
2022-11-30T07:30:51.649Z,227.80
2022-11-30T07:31:51.657Z,209.00
2022-11-30T07:32:51.628Z,210.30
2022-11-30T07:33:51.637Z,217.20
2022-11-30T07:34:51.627Z,211.30
2022-11-30T07:35:51.590Z,207.50
2022-11-30T07:36:51.597Z,198.50
2022-11-30T07:37:51.577Z,215.90
2022-11-30T07:38:51.544Z,205.80
2022-11-30T07:39:51.532Z,198.40
2022-11-30T07:40:51.544Z,196.80
2022-11-30T07:41:51.503Z,198.10
2022-11-30T07:42:51.492Z,184.80
2022-11-30T07:43:51.472Z,191.70
2022-11-30T07:44:57.036Z,191.80
2022-11-30T07:45:51.507Z,189.00
2022-11-30T07:46:51.449Z,189.80
2022-11-30T07:47:51.421Z,169.00
2022-11-30T07:48:51.427Z,174.60
2022-11-30T07:49:51.428Z,180.20
2022-11-30T07:50:51.419Z,174.40
2022-11-30T07:51:51.379Z,174.60
2022-11-30T07:52:51.390Z,172.80
2022-11-30T07:53:51.341Z,164.60
2022-11-30T07:54:51.343Z,159.20
2022-11-30T07:55:56.729Z,159.80
2022-11-30T07:56:51.322Z,165.70
2022-11-30T07:57:51.301Z,161.40
2022-11-30T07:58:51.290Z,153.30
2022-11-30T07:59:51.275Z,152.00
2022-11-30T08:01:04.845Z,150.90
2022-11-30T08:01:51.462Z,155.40
2022-11-30T08:02:51.235Z,154.70
2022-11-30T08:03:51.216Z,162.80
2022-11-30T08:04:51.688Z,171.40
2022-11-30T08:05:51.220Z,169.00
2022-11-30T08:06:51.182Z,172.30
2022-11-30T08:07:51.260Z,168.10
2022-11-30T08:08:51.158Z,163.10
2022-11-30T08:09:51.140Z,163.80
2022-11-30T08:10:51.127Z,164.90
2022-11-30T08:11:51.198Z,164.40
2022-11-30T08:12:51.134Z,158.90
2022-11-30T08:13:51.077Z,168.50
2022-11-30T08:15:18.963Z,159.40
2022-11-30T08:15:51.057Z,168.00
2022-11-30T08:16:51.286Z,163.40
2022-11-30T08:17:51.025Z,167.50
2022-11-30T08:18:51.011Z,158.60
2022-11-30T08:19:51.004Z,157.00
2022-11-30T08:20:51.038Z,160.50
2022-11-30T08:21:50.979Z,155.20
2022-11-30T08:22:51.034Z,161.60
2022-11-30T08:23:51.037Z,163.40
2022-11-30T08:24:51.150Z,152.90
2022-11-30T08:25:50.942Z,157.40
2022-11-30T08:26:50.911Z,151.40
2022-11-30T08:27:50.887Z,160.90
2022-11-30T08:28:50.929Z,151.40
2022-11-30T08:29:50.869Z,155.50
2022-11-30T08:30:50.921Z,163.80
2022-11-30T08:31:50.839Z,151.80
2022-11-30T08:32:50.868Z,164.30
2022-11-30T08:33:50.821Z,166.80
2022-11-30T08:34:51.068Z,175.60
2022-11-30T08:35:50.801Z,169.50
2022-11-30T08:36:52.014Z,175.10
2022-11-30T08:37:50.789Z,185.40
2022-11-30T08:38:50.757Z,171.70
2022-11-30T08:39:50.752Z,195.40
2022-11-30T08:40:50.766Z,184.60
2022-11-30T08:41:50.707Z,181.80
2022-11-30T08:42:50.747Z,179.30
2022-11-30T08:43:50.683Z,184.00
2022-11-30T08:44:50.673Z,184.00
2022-11-30T08:45:54.509Z,189.70
2022-11-30T08:46:52.166Z,171.40
2022-11-30T08:47:50.660Z,175.80
2022-11-30T08:48:50.655Z,177.10
2022-11-30T08:49:50.600Z,176.00
2022-11-30T08:50:50.601Z,158.80
2022-11-30T08:52:50.580Z,161.80
2022-11-30T08:53:50.556Z,154.90
2022-11-30T08:54:51.208Z,146.40
2022-11-30T08:55:50.526Z,146.10
2022-11-30T08:56:50.556Z,143.00
2022-11-30T08:57:50.513Z,149.80
2022-11-30T08:58:50.527Z,149.20
2022-11-30T08:59:50.508Z,152.00
2022-11-30T09:01:50.450Z,149.10
2022-11-30T09:02:50.509Z,148.50
2022-11-30T09:03:50.453Z,138.60
2022-11-30T09:04:50.444Z,139.80
2022-11-30T09:05:50.406Z,134.90
2022-11-30T09:06:50.414Z,141.30
2022-11-30T09:07:50.456Z,142.30
2022-11-30T09:08:50.406Z,135.60
2022-11-30T09:09:50.374Z,140.10
2022-11-30T09:10:50.338Z,143.70
2022-11-30T09:11:50.324Z,146.40
2022-11-30T09:12:50.315Z,145.70
2022-11-30T09:13:50.325Z,147.20
2022-11-30T09:14:57.321Z,147.50
2022-11-30T09:15:50.304Z,139.90
2022-11-30T09:16:50.307Z,142.80
2022-11-30T09:17:50.247Z,134.60
2022-11-30T09:18:50.362Z,134.30
2022-11-30T09:19:50.242Z,131.90
2022-11-30T09:20:50.205Z,128.10
2022-11-30T09:21:52.229Z,126.90
2022-11-30T09:22:50.175Z,116.80
2022-11-30T09:23:50.155Z,119.40
2022-11-30T09:24:50.470Z,112.10
2022-11-30T09:25:50.138Z,113.80
2022-11-30T09:26:50.122Z,119.60
2022-11-30T09:27:50.115Z,110.30
2022-11-30T09:28:50.098Z,110.00
2022-11-30T09:29:50.116Z,113.20
2022-11-30T09:30:50.120Z,109.80
2022-11-30T09:31:50.076Z,109.00
2022-11-30T09:32:50.051Z,106.70
2022-11-30T09:33:50.039Z,111.10
2022-11-30T09:34:50.837Z,113.10
2022-11-30T09:35:50.002Z,110.50
2022-11-30T09:36:49.999Z,114.20
2022-11-30T09:37:50.002Z,108.90
2022-11-30T09:38:49.977Z,98.00
2022-11-30T09:39:49.953Z,98.30
2022-11-30T09:40:49.980Z,103.70
2022-11-30T09:41:49.912Z,104.80
2022-11-30T09:42:49.966Z,108.90
2022-11-30T09:43:49.888Z,110.60
2022-11-30T09:44:50.217Z,114.40
2022-11-30T09:45:49.943Z,117.10
2022-11-30T09:46:49.877Z,120.40
2022-11-30T09:47:49.883Z,116.20
2022-11-30T09:48:49.839Z,115.50
2022-11-30T09:49:49.820Z,124.20
2022-11-30T09:50:49.813Z,123.90
2022-11-30T09:51:49.818Z,116.80
2022-11-30T09:52:49.793Z,117.60
2022-11-30T09:53:49.760Z,124.90
2022-11-30T09:54:50.138Z,116.50
2022-11-30T09:55:49.735Z,114.70
2022-11-30T09:56:49.765Z,117.10
2022-11-30T09:57:49.713Z,116.70
2022-11-30T09:58:49.734Z,107.70
2022-11-30T09:59:49.700Z,115.10
2022-11-30T10:00:49.705Z,110.90
2022-11-30T10:01:56.405Z,118.40
2022-11-30T10:02:49.882Z,107.10
2022-11-30T10:03:49.670Z,107.70
2022-11-30T10:04:50.025Z,111.00
2022-11-30T10:05:49.633Z,112.60
2022-11-30T10:06:49.639Z,112.90
2022-11-30T10:07:49.633Z,108.80
2022-11-30T10:08:50.962Z,109.00
2022-11-30T10:10:09.322Z,102.60
2022-11-30T10:10:49.563Z,97.00
2022-11-30T10:11:49.530Z,100.80
2022-11-30T10:12:49.555Z,100.70
2022-11-30T10:13:49.513Z,106.80
2022-11-30T10:14:49.896Z,100.80
2022-11-30T10:15:49.506Z,109.30
2022-11-30T10:16:49.479Z,96.50
2022-11-30T10:17:49.460Z,102.00
2022-11-30T10:18:49.481Z,98.00
2022-11-30T10:19:49.419Z,101.10
2022-11-30T10:20:49.414Z,103.10
2022-11-30T10:21:49.429Z,104.20
2022-11-30T10:22:49.401Z,100.70
2022-11-30T10:23:49.567Z,106.20
2022-11-30T10:24:49.600Z,105.00
2022-11-30T10:25:49.351Z,106.30
2022-11-30T10:26:49.370Z,103.30
2022-11-30T10:27:49.340Z,103.60
2022-11-30T10:28:49.385Z,101.60
2022-11-30T10:29:49.421Z,95.60
2022-11-30T10:30:49.373Z,98.50
2022-11-30T10:31:49.285Z,99.80
2022-11-30T10:32:49.269Z,100.20
2022-11-30T10:33:49.285Z,101.80
2022-11-30T10:34:49.544Z,104.70
2022-11-30T10:35:49.227Z,100.60
2022-11-30T10:36:49.220Z,110.40
2022-11-30T10:37:49.189Z,108.00
2022-11-30T10:38:49.177Z,102.90
2022-11-30T10:39:49.166Z,96.70
2022-11-30T10:40:49.181Z,99.20
2022-11-30T10:41:49.145Z,104.00
2022-11-30T10:42:49.131Z,102.10
2022-11-30T10:43:49.097Z,99.30
2022-11-30T10:44:49.310Z,102.50
2022-11-30T10:45:49.075Z,97.30
2022-11-30T10:46:49.127Z,94.80
2022-11-30T10:47:49.057Z,100.20
2022-11-30T10:48:49.050Z,103.90
2022-11-30T10:49:49.016Z,99.30
2022-11-30T10:50:49.021Z,95.10
2022-11-30T10:51:49.028Z,96.50
2022-11-30T10:52:49.004Z,101.10
2022-11-30T10:53:48.975Z,102.40
2022-11-30T10:54:49.324Z,103.90
2022-11-30T10:55:48.973Z,99.80
2022-11-30T10:56:48.937Z,100.20
2022-11-30T10:57:48.916Z,126.60
2022-11-30T10:58:48.912Z,118.30
2022-11-30T10:59:49.402Z,104.60
2022-11-30T11:00:48.919Z,100.70
2022-11-30T11:01:48.936Z,100.00
2022-11-30T11:02:48.933Z,103.30
2022-11-30T11:03:48.893Z,102.80
2022-11-30T11:04:48.859Z,106.80
2022-11-30T11:05:48.829Z,98.80
2022-11-30T11:06:48.886Z,104.30
2022-11-30T11:07:48.807Z,104.90
2022-11-30T11:08:48.782Z,97.20
2022-11-30T11:09:49.266Z,97.20
2022-11-30T11:10:48.776Z,99.00
2022-11-30T11:11:48.994Z,89.90
2022-11-30T11:12:48.724Z,95.90
2022-11-30T11:13:48.729Z,90.30
2022-11-30T11:14:48.693Z,86.60
2022-11-30T11:15:48.720Z,87.40
2022-11-30T11:16:48.748Z,84.10
2022-11-30T11:17:48.668Z,85.80
2022-11-30T11:18:48.648Z,83.80
2022-11-30T11:19:48.857Z,85.00
2022-11-30T11:20:50.119Z,78.10
2022-11-30T11:21:48.647Z,71.80
2022-11-30T11:22:48.587Z,76.10
2022-11-30T11:23:48.584Z,80.40
2022-11-30T11:24:48.571Z,78.60
2022-11-30T11:25:48.555Z,78.50
2022-11-30T11:26:48.570Z,77.40
2022-11-30T11:27:48.550Z,78.40
2022-11-30T11:28:48.504Z,75.10
2022-11-30T11:29:48.795Z,75.90
2022-11-30T11:30:48.563Z,78.50
2022-11-30T11:31:48.515Z,79.90
2022-11-30T11:32:48.567Z,74.20
2022-11-30T11:33:48.448Z,79.20
2022-11-30T11:34:51.279Z,79.80
2022-11-30T11:35:48.433Z,73.90
2022-11-30T11:36:48.410Z,76.90
2022-11-30T11:37:48.428Z,77.70
2022-11-30T11:38:48.384Z,76.20
2022-11-30T11:39:48.730Z,79.60
2022-11-30T11:40:48.345Z,78.10
2022-11-30T11:41:48.350Z,80.00
2022-11-30T11:42:48.356Z,80.10
2022-11-30T11:43:48.321Z,83.90
2022-11-30T11:44:48.319Z,80.40
2022-11-30T11:45:48.298Z,79.60
2022-11-30T11:46:48.405Z,77.60
2022-11-30T11:47:48.309Z,77.90
2022-11-30T11:48:48.233Z,84.40
2022-11-30T11:49:48.558Z,86.40
2022-11-30T11:51:06.208Z,82.30
2022-11-30T11:51:48.254Z,73.80
2022-11-30T11:52:48.197Z,74.60
2022-11-30T11:53:53.326Z,77.00
2022-11-30T11:54:48.207Z,77.10
2022-11-30T11:55:48.165Z,84.50
2022-11-30T11:56:48.163Z,89.40
2022-11-30T11:57:48.166Z,78.90
2022-11-30T11:58:48.136Z,82.30
2022-11-30T11:59:48.400Z,83.20
2022-11-30T12:00:48.090Z,89.00
2022-11-30T12:01:48.078Z,94.50
2022-11-30T12:02:48.114Z,87.50
2022-11-30T12:03:48.113Z,84.00
2022-11-30T12:04:48.031Z,85.30
2022-11-30T12:05:48.034Z,82.60
2022-11-30T12:06:48.040Z,81.60
2022-11-30T12:07:48.068Z,79.60
2022-11-30T12:08:48.013Z,75.40
2022-11-30T12:09:48.295Z,82.90
2022-11-30T12:10:52.506Z,79.90
2022-11-30T12:11:47.960Z,77.30
2022-11-30T12:12:52.036Z,80.20
2022-11-30T12:13:47.931Z,87.80
2022-11-30T12:14:47.902Z,79.10
2022-11-30T12:15:47.935Z,80.80
2022-11-30T12:16:47.877Z,84.70
2022-11-30T12:17:47.863Z,85.60
2022-11-30T12:18:47.875Z,84.10
2022-11-30T12:19:48.204Z,83.00
2022-11-30T12:20:47.823Z,84.60
2022-11-30T12:21:47.848Z,85.50
2022-11-30T12:22:47.797Z,81.90
2022-11-30T12:23:47.795Z,85.30
2022-11-30T12:24:47.805Z,86.90
2022-11-30T12:25:47.766Z,82.00
2022-11-30T12:26:47.774Z,83.90
2022-11-30T12:27:53.420Z,88.40
2022-11-30T12:28:47.728Z,83.40
2022-11-30T12:29:47.840Z,79.70
2022-11-30T12:30:47.718Z,83.70
2022-11-30T12:31:47.758Z,83.60
2022-11-30T12:32:47.671Z,81.20
2022-11-30T12:33:47.664Z,84.00